createdAt,value
2023-03-27T00:00:22.386Z,97084.15
2023-03-27T00:02:01.131Z,97085.16
2023-03-27T00:03:23.063Z,97084.85
2023-03-27T00:05:09.144Z,97087.59
2023-03-27T00:06:45.558Z,97090.55
2023-03-27T00:08:30.847Z,97088.85
2023-03-27T00:09:53.770Z,97090.91
2023-03-27T00:11:18.451Z,97093.71
2023-03-27T00:12:54.229Z,97090.17
2023-03-27T00:14:18.300Z,97086.42
2023-03-27T00:16:05.548Z,97081.27
2023-03-27T00:17:34.333Z,97080.25
2023-03-27T00:19:10.716Z,97078.77
2023-03-27T00:20:33.373Z,97082.51
2023-03-27T00:21:57.529Z,97080.55
2023-03-27T00:23:30.832Z,97082.15
2023-03-27T00:25:11.800Z,97083.06
2023-03-27T00:26:45.557Z,97079.92
2023-03-27T00:28:20.250Z,97080.41
2023-03-27T00:29:53.920Z,97075.89
2023-03-27T00:31:39.200Z,97078.44
2023-03-27T00:33:01.515Z,97075.06
2023-03-27T00:34:35.584Z,97074.70
2023-03-27T00:36:21.095Z,97072.14
2023-03-27T00:37:54.586Z,97069.39
2023-03-27T00:39:28.287Z,97063.39
2023-03-27T00:41:02.413Z,97064.13
2023-03-27T00:42:54.731Z,97063.39
2023-03-27T00:44:31.026Z,97055.19
2023-03-27T00:46:13.746Z,97059.42
2023-03-27T00:47:38.499Z,97063.50
2023-03-27T00:49:00.176Z,97062.45
2023-03-27T00:50:25.578Z,97062.85
2023-03-27T00:51:59.342Z,97063.43
2023-03-27T00:53:34.752Z,97064.73
2023-03-27T00:55:20.329Z,97061.96
2023-03-27T00:57:14.167Z,97059.30
2023-03-27T00:58:38.262Z,97059.23
2023-03-27T01:00:13.375Z,97061.52
2023-03-27T01:01:58.518Z,97061.41
2023-03-27T01:03:35.629Z,97058.55
2023-03-27T01:05:21.524Z,97061.98
2023-03-27T01:07:07.625Z,97070.83
2023-03-27T01:08:41.518Z,97072.16
2023-03-27T01:10:14.995Z,97072.59
2023-03-27T01:11:48.776Z,97077.02
2023-03-27T01:13:35.201Z,97073.13
2023-03-27T01:15:20.127Z,97076.08
2023-03-27T01:16:56.525Z,97078.33
2023-03-27T01:18:30.207Z,97080.52
2023-03-27T01:20:14.865Z,97075.33
2023-03-27T01:21:59.883Z,97070.11
2023-03-27T01:23:59.131Z,97072.92
2023-03-27T01:25:14.287Z,97070.81
2023-03-27T01:27:08.689Z,97069.41
2023-03-27T01:28:43.175Z,97072.63
2023-03-27T01:30:16.698Z,97074.98
2023-03-27T01:32:02.536Z,97075.72
2023-03-27T01:33:51.119Z,97073.08
2023-03-27T01:35:37.002Z,97072.71
2023-03-27T01:37:22.895Z,97068.48
2023-03-27T01:39:09.444Z,97070.98
2023-03-27T01:40:54.704Z,97064.58
2023-03-27T01:42:26.765Z,97058.40
2023-03-27T01:43:48.605Z,97074.62
2023-03-27T01:45:33.740Z,97071.55
2023-03-27T01:47:09.630Z,97068.39
2023-03-27T01:48:43.144Z,97064.13
2023-03-27T01:50:08.136Z,97062.10
2023-03-27T01:51:41.264Z,97063.98
2023-03-27T01:53:16.831Z,97070.17
2023-03-27T01:55:10.280Z,97067.20
2023-03-27T01:56:51.685Z,97066.94
2023-03-27T01:58:40.912Z,97057.05
2023-03-27T02:00:22.730Z,97066.69
2023-03-27T02:01:56.430Z,97069.07
2023-03-27T02:03:32.423Z,97068.69
2023-03-27T02:05:17.396Z,97065.07
2023-03-27T02:07:03.029Z,97060.83
2023-03-27T02:08:39.215Z,97064.09
2023-03-27T02:10:10.926Z,97058.73
2023-03-27T02:11:38.434Z,97058.38
2023-03-27T02:13:18.995Z,97057.96
2023-03-27T02:14:44.520Z,97055.64
2023-03-27T02:16:11.035Z,97055.34
2023-03-27T02:17:51.276Z,97055.85
2023-03-27T02:19:33.816Z,97059.27
2023-03-27T02:21:07.049Z,97059.30
2023-03-27T02:22:40.757Z,97059.30
2023-03-27T02:24:06.077Z,97060.63
2023-03-27T02:25:51.378Z,97049.21
2023-03-27T02:27:33.997Z,97058.13
2023-03-27T02:29:14.570Z,97053.85
2023-03-27T02:30:41.147Z,97053.53
2023-03-27T02:32:07.251Z,97054.48
2023-03-27T02:33:42.210Z,97051.61
2023-03-27T02:35:17.702Z,97056.00
2023-03-27T02:36:53.353Z,97042.20
2023-03-27T02:38:30.289Z,97053.42
2023-03-27T02:39:54.064Z,97039.74
2023-03-27T02:41:28.025Z,97053.92
2023-03-27T02:43:18.207Z,97055.58
2023-03-27T02:44:59.981Z,97056.88
2023-03-27T02:46:54.782Z,97045.64
2023-03-27T02:48:36.296Z,97057.96
2023-03-27T02:50:18.868Z,97058.30
2023-03-27T02:51:52.483Z,97061.58
2023-03-27T02:53:25.889Z,97062.39
2023-03-27T02:55:04.800Z,97062.17
2023-03-27T02:56:50.793Z,97061.21
2023-03-27T02:58:50.972Z,97059.96
2023-03-27T03:00:50.350Z,97059.58
2023-03-27T03:03:10.916Z,97059.15
2023-03-27T03:05:03.951Z,97057.49
2023-03-27T03:06:53.958Z,97057.17
2023-03-27T03:08:42.126Z,97061.25
2023-03-27T03:10:05.541Z,97065.70
2023-03-27T03:11:56.481Z,97061.73
2023-03-27T03:13:52.051Z,97061.90
2023-03-27T03:15:45.588Z,97063.04
2023-03-27T03:17:19.337Z,97064.92
2023-03-27T03:19:10.006Z,97066.09
2023-03-27T03:20:59.095Z,97067.90
2023-03-27T03:22:36.311Z,97068.71
2023-03-27T03:24:13.890Z,97069.05
2023-03-27T03:26:08.096Z,97078.41
2023-03-27T03:28:16.903Z,97087.60
2023-03-27T03:30:11.111Z,97088.52
2023-03-27T03:32:16.033Z,97090.46
2023-03-27T03:33:57.595Z,97076.05
2023-03-27T03:35:43.427Z,97090.03
2023-03-27T03:37:30.680Z,97095.83
2023-03-27T03:39:06.109Z,97098.80
2023-03-27T03:40:48.130Z,97101.01
2023-03-27T03:42:23.846Z,97100.63
2023-03-27T03:44:10.753Z,97103.33
2023-03-27T03:45:45.561Z,97102.11
2023-03-27T03:47:12.694Z,97108.25
2023-03-27T03:49:05.843Z,97107.36
2023-03-27T03:50:39.774Z,97108.45
2023-03-27T03:52:25.521Z,97109.89
2023-03-27T03:54:11.440Z,97113.69
2023-03-27T03:56:06.748Z,97118.86
2023-03-27T03:57:43.216Z,97118.61
2023-03-27T03:59:19.340Z,97117.41
2023-03-27T04:01:02.890Z,97117.75
2023-03-27T04:02:44.456Z,97111.61
2023-03-27T04:04:40.740Z,97109.95
2023-03-27T04:06:07.592Z,97109.48
2023-03-27T04:07:43.609Z,97105.73
2023-03-27T04:09:24.593Z,97108.61
2023-03-27T04:11:20.931Z,97109.98
2023-03-27T04:13:17.448Z,97093.48
2023-03-27T04:15:05.580Z,97112.09
2023-03-27T04:16:46.571Z,97113.58
2023-03-27T04:18:26.591Z,97113.91
2023-03-27T04:20:04.411Z,97118.81
2023-03-27T04:21:58.231Z,97052.27
2023-03-27T04:23:43.596Z,97120.09
2023-03-27T04:25:34.740Z,97120.95
2023-03-27T04:27:21.067Z,97119.95
2023-03-27T04:29:13.454Z,97121.64
2023-03-27T04:31:39.568Z,97125.68
2023-03-27T04:33:47.505Z,97126.73
2023-03-27T04:35:41.353Z,97133.05
2023-03-27T04:37:24.478Z,97138.02
2023-03-27T04:39:42.603Z,97143.63
2023-03-27T04:41:18.235Z,97141.42
2023-03-27T04:43:01.289Z,97143.34
2023-03-27T04:44:37.636Z,97145.29
2023-03-27T04:46:06.769Z,97144.39
2023-03-27T04:48:00.948Z,97143.17
2023-03-27T04:50:02.397Z,97145.27
2023-03-27T04:51:52.917Z,97151.77
2023-03-27T04:53:41.914Z,97153.67
2023-03-27T04:55:28.434Z,97158.80
2023-03-27T04:57:13.601Z,97159.05
2023-03-27T04:58:58.711Z,97164.04
2023-03-27T05:00:32.664Z,97147.02
2023-03-27T05:02:28.089Z,97165.26
2023-03-27T05:04:18.015Z,97165.13
2023-03-27T05:06:37.432Z,97161.98
2023-03-27T05:08:23.701Z,97168.25
2023-03-27T05:10:15.593Z,97170.39
2023-03-27T05:11:55.549Z,97168.19
2023-03-27T05:13:49.320Z,97169.02
2023-03-27T05:15:40.387Z,97168.55
2023-03-27T05:17:27.387Z,97169.38
2023-03-27T05:19:03.659Z,97163.80
2023-03-27T05:20:50.668Z,97162.25
2023-03-27T05:22:35.583Z,97160.88
2023-03-27T05:24:15.428Z,97158.36
2023-03-27T05:26:00.195Z,97157.52
2023-03-27T05:27:54.721Z,97153.94
2023-03-27T05:29:47.216Z,97157.92
2023-03-27T05:31:22.297Z,97158.70
2023-03-27T05:33:40.090Z,97154.03
2023-03-27T05:35:23.654Z,97163.10
2023-03-27T05:36:58.956Z,97162.91
2023-03-27T05:38:45.597Z,97166.20
2023-03-27T05:40:23.122Z,97170.39
2023-03-27T05:42:04.430Z,97171.55
2023-03-27T05:43:51.154Z,97173.44
2023-03-27T05:45:37.732Z,97174.30
2023-03-27T05:47:25.962Z,97176.96
2023-03-27T05:49:02.205Z,97183.08
2023-03-27T05:50:47.475Z,97186.70
2023-03-27T05:52:41.824Z,97188.80
2023-03-27T05:54:27.513Z,97191.49
2023-03-27T05:56:07.726Z,97190.89
2023-03-27T05:57:44.986Z,97193.16
2023-03-27T05:59:20.236Z,97195.77
2023-03-27T06:01:14.842Z,97200.44
2023-03-27T06:03:02.420Z,97204.60
2023-03-27T06:05:06.753Z,97204.75
2023-03-27T06:06:44.277Z,97209.31
2023-03-27T06:08:26.160Z,97211.62
2023-03-27T06:10:00.444Z,97214.56
2023-03-27T06:11:39.831Z,97215.06
2023-03-27T06:13:25.469Z,97217.34
2023-03-27T06:15:16.300Z,97221.13
2023-03-27T06:17:06.735Z,97225.48
2023-03-27T06:18:55.696Z,97231.56
2023-03-27T06:20:22.916Z,97234.56
2023-03-27T06:22:10.152Z,97239.36
2023-03-27T06:23:43.904Z,97237.21
2023-03-27T06:25:09.392Z,97239.15
2023-03-27T06:26:50.189Z,97240.40
2023-03-27T06:28:23.922Z,97245.34
2023-03-27T06:30:09.443Z,97243.20
2023-03-27T06:31:44.796Z,97243.88
2023-03-27T06:33:43.744Z,97244.27
2023-03-27T06:35:20.176Z,97247.33
2023-03-27T06:36:48.691Z,97249.27
2023-03-27T06:38:34.841Z,97253.73
2023-03-27T06:40:22.750Z,97257.81
2023-03-27T06:42:05.674Z,97257.27
2023-03-27T06:44:18.953Z,97260.69
2023-03-27T06:46:05.288Z,97272.01
2023-03-27T06:47:55.993Z,97271.45
2023-03-27T06:49:47.538Z,97280.01
2023-03-27T06:51:36.156Z,97282.17
2023-03-27T06:54:52.445Z,97279.55
2023-03-27T06:56:18.918Z,97278.23
2023-03-27T06:58:13.459Z,97280.95
2023-03-27T07:00:01.634Z,97285.63
2023-03-27T07:01:44.629Z,97289.06
2023-03-27T07:04:02.429Z,97284.02
2023-03-27T07:06:39.658Z,97288.25
2023-03-27T07:08:29.217Z,97296.72
2023-03-27T07:10:05.149Z,97296.85
2023-03-27T07:11:39.694Z,97299.20
2023-03-27T07:13:16.450Z,97297.52
2023-03-27T07:14:51.980Z,97301.82
2023-03-27T07:16:45.568Z,97300.89
2023-03-27T07:18:31.169Z,97301.73
2023-03-27T07:20:12.706Z,97304.19
2023-03-27T07:21:57.720Z,97309.33
2023-03-27T07:23:31.702Z,97312.98
2023-03-27T07:24:59.005Z,97310.10
2023-03-27T07:26:34.381Z,97315.38
2023-03-27T07:28:21.873Z,97318.38
2023-03-27T07:30:09.350Z,97327.45
2023-03-27T07:32:07.181Z,97323.73
2023-03-27T07:34:08.917Z,97329.16
2023-03-27T07:35:49.691Z,97332.02
2023-03-27T07:37:50.074Z,97333.03
2023-03-27T07:39:51.732Z,97331.86
2023-03-27T07:41:33.569Z,97341.00
2023-03-27T07:43:07.027Z,97343.09
2023-03-27T07:44:52.563Z,97344.32
2023-03-27T07:46:46.147Z,97351.52
2023-03-27T07:48:22.509Z,97357.63
2023-03-27T07:50:16.203Z,97356.77
2023-03-27T07:52:09.762Z,97368.97
2023-03-27T07:54:09.728Z,97371.90
2023-03-27T07:55:54.315Z,97372.02
2023-03-27T07:57:49.677Z,97374.48
2023-03-27T07:59:44.281Z,97375.92
2023-03-27T08:01:12.676Z,97378.23
2023-03-27T08:02:46.487Z,97377.39
2023-03-27T08:04:32.538Z,97383.06
2023-03-27T08:06:02.700Z,97382.89
2023-03-27T08:07:57.761Z,97384.98
2023-03-27T08:09:41.058Z,97383.59
2023-03-27T08:11:30.657Z,97392.55
2023-03-27T08:13:12.755Z,97394.73
2023-03-27T08:14:54.135Z,97397.33
2023-03-27T08:16:32.946Z,97403.64
2023-03-27T08:18:08.982Z,97403.30
2023-03-27T08:20:02.632Z,97408.70
2023-03-27T08:21:49.334Z,97411.02
2023-03-27T08:23:42.974Z,97414.58
2023-03-27T08:25:43.766Z,97411.56
2023-03-27T08:27:07.567Z,97420.25
2023-03-27T08:28:56.076Z,97424.03
2023-03-27T08:30:42.278Z,97424.16
2023-03-27T08:32:27.582Z,97425.25
2023-03-27T08:34:03.450Z,97426.73
2023-03-27T08:35:53.882Z,97427.48
2023-03-27T08:37:29.509Z,97432.48
2023-03-27T08:39:45.775Z,97424.77
2023-03-27T08:41:33.040Z,97418.13
2023-03-27T08:43:16.794Z,97437.64
2023-03-27T08:45:05.807Z,97438.77
2023-03-27T08:46:56.038Z,97441.14
2023-03-27T08:48:41.764Z,97441.72
2023-03-27T08:50:27.693Z,97435.16
2023-03-27T08:52:09.999Z,97440.28
2023-03-27T08:53:52.481Z,97439.20
2023-03-27T08:55:35.858Z,97446.70
2023-03-27T08:57:28.322Z,97453.02
2023-03-27T08:59:17.493Z,97450.50
2023-03-27T09:01:03.965Z,97455.99
2023-03-27T09:02:57.694Z,97454.41
2023-03-27T09:04:53.521Z,97458.80
2023-03-27T09:06:45.802Z,97440.91
2023-03-27T09:08:19.548Z,97457.44
2023-03-27T09:10:15.398Z,97454.44
2023-03-27T09:12:00.369Z,97453.58
2023-03-27T09:13:45.107Z,97458.96
2023-03-27T09:15:30.889Z,97455.08
2023-03-27T09:16:54.440Z,97459.47
2023-03-27T09:18:36.550Z,97458.09
2023-03-27T09:20:10.840Z,97459.73
2023-03-27T09:21:36.094Z,97462.20
2023-03-27T09:23:14.892Z,97463.47
2023-03-27T09:25:53.833Z,97465.70
2023-03-27T09:27:55.773Z,97471.55
2023-03-27T09:29:38.488Z,97467.58
2023-03-27T09:31:32.483Z,97474.45
2023-03-27T09:33:19.912Z,97474.91
2023-03-27T09:34:55.691Z,97474.25
2023-03-27T09:36:39.880Z,97472.09
2023-03-27T09:38:34.332Z,97474.80
2023-03-27T09:40:23.547Z,97474.70
2023-03-27T09:42:10.339Z,97473.15
2023-03-27T09:43:53.235Z,97458.39
2023-03-27T09:45:38.999Z,97478.18
2023-03-27T09:47:14.179Z,97473.35
2023-03-27T09:49:02.000Z,97481.32
2023-03-27T09:50:54.131Z,97472.77
2023-03-27T09:52:54.565Z,97476.41
2023-03-27T09:55:00.060Z,97479.95
2023-03-27T09:56:41.147Z,97479.31
2023-03-27T09:58:18.628Z,97480.01
2023-03-27T10:00:12.461Z,97483.41
2023-03-27T10:01:36.403Z,97483.75
2023-03-27T10:03:44.206Z,97492.98
2023-03-27T10:05:30.229Z,97495.11
2023-03-27T10:07:12.857Z,97499.48
2023-03-27T10:09:18.256Z,97494.44
2023-03-27T10:10:53.716Z,97499.97
2023-03-27T10:13:25.622Z,97500.41
2023-03-27T10:15:04.265Z,97501.44
2023-03-27T10:16:54.085Z,97504.27
2023-03-27T10:18:33.111Z,97503.38
2023-03-27T10:20:05.473Z,97507.10
2023-03-27T10:21:52.077Z,97504.38
2023-03-27T10:23:29.692Z,97513.63
2023-03-27T10:25:14.914Z,97508.21
2023-03-27T10:26:58.766Z,97511.52
2023-03-27T10:28:44.956Z,97511.48
2023-03-27T10:30:13.462Z,97513.24
2023-03-27T10:31:54.596Z,97516.11
2023-03-27T10:33:38.467Z,97516.56
2023-03-27T10:35:12.644Z,97514.96
2023-03-27T10:37:06.057Z,97520.27
2023-03-27T10:38:46.931Z,97518.29
2023-03-27T10:41:03.770Z,97514.97
2023-03-27T10:42:51.571Z,97518.29
2023-03-27T10:44:17.610Z,97521.49
2023-03-27T10:45:44.325Z,97517.19
2023-03-27T10:47:28.423Z,97521.94
2023-03-27T10:49:11.659Z,97522.85
2023-03-27T10:50:33.800Z,97524.34
2023-03-27T10:52:07.486Z,97522.02
2023-03-27T10:54:03.792Z,97528.68
2023-03-27T10:55:56.538Z,97521.20
2023-03-27T10:57:21.339Z,97525.18
2023-03-27T10:59:06.467Z,97521.45
2023-03-27T11:00:41.317Z,97520.03
2023-03-27T11:02:06.873Z,97521.30
2023-03-27T11:03:50.967Z,97516.56
2023-03-27T11:05:36.741Z,97525.23
2023-03-27T11:07:18.227Z,97527.14
2023-03-27T11:08:52.960Z,97526.33
2023-03-27T11:10:22.359Z,97531.17
2023-03-27T11:11:58.231Z,97527.30
2023-03-27T11:13:32.199Z,97519.56
2023-03-27T11:15:23.256Z,97519.21
2023-03-27T11:17:16.570Z,97516.11
2023-03-27T11:19:08.348Z,97520.77
2023-03-27T11:20:59.489Z,97522.75
2023-03-27T11:22:38.661Z,97522.92
2023-03-27T11:24:03.927Z,97523.22
2023-03-27T11:26:01.634Z,97523.66
2023-03-27T11:27:39.821Z,97528.81
2023-03-27T11:29:09.262Z,97531.88
2023-03-27T11:30:55.978Z,97518.36
2023-03-27T11:32:21.280Z,97533.94
2023-03-27T11:34:13.353Z,97532.79
2023-03-27T11:36:05.799Z,97537.77
2023-03-27T11:37:57.079Z,97531.07
2023-03-27T11:39:49.085Z,97533.17
2023-03-27T11:41:30.060Z,97536.12
2023-03-27T11:42:55.589Z,97535.64
2023-03-27T11:44:19.808Z,97537.38
2023-03-27T11:46:53.312Z,97527.08
2023-03-27T11:48:27.238Z,97522.23
2023-03-27T11:50:13.180Z,97539.30
2023-03-27T11:51:38.058Z,97534.31
2023-03-27T11:53:12.193Z,97535.11
2023-03-27T11:55:23.877Z,97534.95
2023-03-27T11:56:57.336Z,97533.27
2023-03-27T11:59:27.764Z,97538.14
2023-03-27T12:01:09.936Z,97531.75
2023-03-27T12:02:45.593Z,97536.66
2023-03-27T12:04:34.371Z,97536.95
2023-03-27T12:06:11.280Z,97546.33
2023-03-27T12:07:48.059Z,97544.74
2023-03-27T12:09:25.790Z,97551.77
2023-03-27T12:11:20.325Z,97552.61
2023-03-27T12:13:11.584Z,97554.73
2023-03-27T12:14:57.295Z,97556.34
2023-03-27T12:16:31.533Z,97561.27
2023-03-27T12:18:19.007Z,97561.35
2023-03-27T12:20:15.131Z,97556.91
2023-03-27T12:22:21.134Z,97555.01
2023-03-27T12:23:58.754Z,97560.02
2023-03-27T12:25:53.093Z,97556.12
2023-03-27T12:27:52.058Z,97553.39
2023-03-27T12:29:59.650Z,97551.83
2023-03-27T12:31:33.201Z,97555.98
2023-03-27T12:33:10.891Z,97564.58
2023-03-27T12:34:52.021Z,97572.72
2023-03-27T12:36:24.234Z,97575.65
2023-03-27T12:38:06.873Z,97577.45
2023-03-27T12:39:29.364Z,97571.34
2023-03-27T12:41:16.191Z,97584.27
2023-03-27T12:43:45.174Z,97591.69
2023-03-27T12:45:14.250Z,97593.39
2023-03-27T12:46:45.576Z,97592.02
2023-03-27T12:48:15.971Z,97586.56
2023-03-27T12:49:59.807Z,97602.80
2023-03-27T12:51:37.850Z,97610.33
2023-03-27T12:53:01.267Z,97609.10
2023-03-27T12:54:32.573Z,97611.59
2023-03-27T12:56:02.142Z,97613.20
2023-03-27T12:57:37.921Z,97621.73
2023-03-27T12:59:12.002Z,97627.77
2023-03-27T13:01:01.615Z,97628.70
2023-03-27T13:03:17.156Z,97631.08
2023-03-27T13:04:50.943Z,97632.98
2023-03-27T13:06:28.280Z,97633.01
2023-03-27T13:08:10.074Z,97631.20
2023-03-27T13:09:56.255Z,97635.41
2023-03-27T13:11:37.106Z,97632.95
2023-03-27T13:13:15.653Z,97638.69
2023-03-27T13:14:45.390Z,97639.42
2023-03-27T13:16:25.312Z,97639.62
2023-03-27T13:18:01.842Z,97640.89
2023-03-27T13:19:42.941Z,97641.89
2023-03-27T13:21:14.903Z,97649.64
2023-03-27T13:22:57.251Z,97647.98
2023-03-27T13:24:22.046Z,97647.04
2023-03-27T13:25:46.402Z,97652.05
2023-03-27T13:27:08.286Z,97648.36
2023-03-27T13:28:31.253Z,97652.98
2023-03-27T13:30:24.720Z,97649.70
2023-03-27T13:32:03.165Z,97656.82
2023-03-27T13:34:18.449Z,97658.67
2023-03-27T13:35:53.496Z,97663.92
2023-03-27T13:37:17.559Z,97673.23
2023-03-27T13:38:44.894Z,97670.77
2023-03-27T13:40:10.241Z,97666.46
2023-03-27T13:42:05.668Z,97672.23
2023-03-27T13:43:42.716Z,97672.59
2023-03-27T13:45:24.661Z,97679.21
2023-03-27T13:47:21.080Z,97655.56
2023-03-27T13:49:03.438Z,97680.61
2023-03-27T13:50:39.269Z,97682.47
2023-03-27T13:52:04.125Z,97684.45
2023-03-27T13:53:25.961Z,97692.42
2023-03-27T13:55:27.926Z,97681.27
2023-03-27T13:57:25.833Z,97702.87
2023-03-27T13:59:14.038Z,97709.20
2023-03-27T14:00:49.789Z,97718.15
2023-03-27T14:02:12.749Z,97722.63
2023-03-27T14:03:45.313Z,97731.22
2023-03-27T14:05:19.324Z,97732.86
2023-03-27T14:06:49.095Z,97740.65
2023-03-27T14:08:13.154Z,97740.73
2023-03-27T14:10:04.250Z,97750.62
2023-03-27T14:11:36.085Z,97754.35
2023-03-27T14:13:00.720Z,97759.64
2023-03-27T14:14:36.297Z,97758.38
2023-03-27T14:15:58.334Z,97761.21
2023-03-27T14:17:24.880Z,97760.75
2023-03-27T14:18:48.390Z,97762.05
2023-03-27T14:20:11.516Z,97763.08
2023-03-27T14:21:38.828Z,97769.23
2023-03-27T14:23:03.622Z,97773.26
2023-03-27T14:24:34.581Z,97769.66
2023-03-27T14:26:03.498Z,97773.31
2023-03-27T14:27:28.030Z,97773.11
2023-03-27T14:28:51.727Z,97775.98
2023-03-27T14:30:21.667Z,97774.92
2023-03-27T14:31:59.485Z,97781.14
2023-03-27T14:33:24.673Z,97781.02
2023-03-27T14:35:02.680Z,97781.40
2023-03-27T14:36:30.135Z,97777.81
2023-03-27T14:37:53.835Z,97778.69
2023-03-27T14:39:19.831Z,97776.38
2023-03-27T14:40:47.457Z,97783.75
2023-03-27T14:42:10.548Z,97780.24
2023-03-27T14:43:32.356Z,97786.36
2023-03-27T14:44:54.753Z,97786.92
2023-03-27T14:46:27.712Z,97786.60
2023-03-27T14:47:50.242Z,97797.59
2023-03-27T14:49:12.759Z,97797.48
2023-03-27T14:50:38.256Z,97796.61
2023-03-27T14:52:01.348Z,97803.41
2023-03-27T14:54:04.337Z,97808.55
2023-03-27T14:55:34.475Z,97804.45
2023-03-27T14:57:15.161Z,97808.98
2023-03-27T14:58:43.908Z,97810.53
2023-03-27T15:00:06.976Z,97815.20
2023-03-27T15:01:32.085Z,97809.00
2023-03-27T15:02:57.207Z,97812.16
2023-03-27T15:04:19.576Z,97813.44
2023-03-27T15:05:43.529Z,97805.38
2023-03-27T15:07:22.232Z,97809.02
2023-03-27T15:09:04.136Z,97811.88
2023-03-27T15:11:39.366Z,97799.65
2023-03-27T15:13:17.275Z,97804.02
2023-03-27T15:15:06.189Z,97802.45
2023-03-27T15:16:52.133Z,97800.40
2023-03-27T15:18:39.556Z,97804.33
2023-03-27T15:20:27.332Z,97800.70
2023-03-27T15:22:01.623Z,97805.31
2023-03-27T15:23:43.449Z,97806.94
2023-03-27T15:25:32.605Z,97805.14
2023-03-27T15:27:15.628Z,97808.31
2023-03-27T15:29:01.763Z,97810.42
2023-03-27T15:30:56.719Z,97813.54
2023-03-27T15:32:50.554Z,97820.09
2023-03-27T15:34:26.496Z,97828.65
2023-03-27T15:35:48.548Z,97825.02
2023-03-27T15:37:11.087Z,97824.34
2023-03-27T15:38:51.307Z,97822.80
2023-03-27T15:40:16.208Z,97828.75
2023-03-27T15:41:37.913Z,97828.13
2023-03-27T15:43:23.099Z,97831.23
2023-03-27T15:44:56.543Z,97832.26
2023-03-27T15:46:35.963Z,97838.05
2023-03-27T15:48:21.768Z,97837.92
2023-03-27T15:50:02.291Z,97838.09
2023-03-27T15:51:48.169Z,97846.11
2023-03-27T15:53:10.046Z,97861.23
2023-03-27T15:54:43.593Z,97859.59
2023-03-27T15:56:17.442Z,97867.86
2023-03-27T15:57:40.523Z,97868.36
2023-03-27T15:59:02.435Z,97869.98
2023-03-27T16:00:28.830Z,97875.05
2023-03-27T16:01:54.210Z,97877.86
2023-03-27T16:03:17.027Z,97859.23
2023-03-27T16:04:39.107Z,97879.50
2023-03-27T16:06:01.334Z,97882.31
2023-03-27T16:07:23.503Z,97886.06
2023-03-27T16:08:48.979Z,97888.89
2023-03-27T16:10:26.494Z,97887.90
2023-03-27T16:12:02.090Z,97894.84
2023-03-27T16:13:47.080Z,97896.29
2023-03-27T16:15:16.390Z,97900.80
2023-03-27T16:17:05.167Z,97900.16
2023-03-27T16:18:36.802Z,97896.23
2023-03-27T16:20:07.920Z,97900.32
2023-03-27T16:21:41.441Z,97906.75
2023-03-27T16:23:04.288Z,97914.63
2023-03-27T16:24:26.946Z,97917.35
2023-03-27T16:25:48.802Z,97914.91
2023-03-27T16:27:11.104Z,97917.20
2023-03-27T16:28:35.621Z,97919.59
2023-03-27T16:29:57.989Z,97920.30
2023-03-27T16:31:19.909Z,97927.02
2023-03-27T16:32:49.758Z,97930.73
2023-03-27T16:34:11.937Z,97935.91
2023-03-27T16:35:45.641Z,97945.95
2023-03-27T16:37:09.826Z,97950.48
2023-03-27T16:38:33.622Z,97939.30
2023-03-27T16:39:55.745Z,97963.30
2023-03-27T16:41:20.266Z,97962.86
2023-03-27T16:42:53.603Z,97969.66
2023-03-27T16:44:15.753Z,97972.30
2023-03-27T16:45:38.050Z,97974.64
2023-03-27T16:47:23.434Z,97981.65
2023-03-27T16:48:45.619Z,97983.64
2023-03-27T16:50:11.768Z,97988.55
2023-03-27T16:51:33.920Z,97992.87
2023-03-27T16:53:07.806Z,97991.84
2023-03-27T16:54:41.993Z,97994.42
2023-03-27T16:56:05.105Z,97996.31
2023-03-27T16:57:27.413Z,98004.33
2023-03-27T16:59:03.357Z,98000.48
2023-03-27T17:00:35.089Z,98006.30
2023-03-27T17:02:12.036Z,98007.55
2023-03-27T17:03:45.974Z,98009.96
2023-03-27T17:05:07.914Z,98011.89
2023-03-27T17:06:32.062Z,98015.55
2023-03-27T17:08:02.047Z,98019.63
2023-03-27T17:09:24.425Z,98018.71
2023-03-27T17:10:56.616Z,98024.24
2023-03-27T17:12:28.637Z,98026.73
2023-03-27T17:13:50.650Z,98023.92
2023-03-27T17:15:12.744Z,98032.20
2023-03-27T17:16:34.358Z,98033.42
2023-03-27T17:17:56.295Z,98029.39
2023-03-27T17:19:23.469Z,98033.35
2023-03-27T17:20:46.358Z,98028.96
2023-03-27T17:22:08.704Z,98036.01
2023-03-27T17:23:31.516Z,98039.30
2023-03-27T17:24:56.715Z,98045.48
2023-03-27T17:26:19.948Z,98043.81
2023-03-27T17:27:43.705Z,98044.02
2023-03-27T17:29:06.128Z,98044.47
2023-03-27T17:30:38.130Z,98046.68
2023-03-27T17:32:02.274Z,98047.06
2023-03-27T17:33:24.564Z,98049.09
2023-03-27T17:34:46.383Z,98047.30
2023-03-27T17:36:08.763Z,98054.73
2023-03-27T17:37:30.742Z,98053.04
2023-03-27T17:38:53.278Z,98056.41
2023-03-27T17:40:15.267Z,98059.23
2023-03-27T17:41:37.218Z,98055.48
2023-03-27T17:43:01.467Z,98060.29
2023-03-27T17:44:23.012Z,98060.40
2023-03-27T17:45:52.657Z,98061.86
2023-03-27T17:47:15.580Z,98058.98
2023-03-27T17:48:39.697Z,98064.70
2023-03-27T17:50:01.925Z,98068.76
2023-03-27T17:51:37.023Z,98068.58
2023-03-27T17:53:22.663Z,98074.09
2023-03-27T17:54:46.591Z,98072.36
2023-03-27T17:56:27.485Z,98080.30
2023-03-27T17:58:13.917Z,98080.45
2023-03-27T17:59:56.115Z,98082.58
2023-03-27T18:01:29.689Z,98083.98
2023-03-27T18:02:59.603Z,98091.12
2023-03-27T18:04:24.308Z,98093.69
2023-03-27T18:06:05.437Z,98094.08
2023-03-27T18:07:39.335Z,98096.86
2023-03-27T18:09:20.482Z,98100.23
2023-03-27T18:10:50.503Z,98098.34
2023-03-27T18:12:17.344Z,98101.05
2023-03-27T18:14:01.678Z,98083.42
2023-03-27T18:15:45.730Z,98096.30
2023-03-27T18:17:27.688Z,98096.97
2023-03-27T18:18:51.047Z,98094.86
2023-03-27T18:20:45.625Z,98097.80
2023-03-27T18:22:19.926Z,98097.02
2023-03-27T18:24:11.639Z,98097.64
2023-03-27T18:25:48.221Z,98099.42
2023-03-27T18:27:22.423Z,98102.08
2023-03-27T18:29:16.609Z,98099.36
2023-03-27T18:30:42.582Z,98105.63
2023-03-27T18:32:28.555Z,98107.56
2023-03-27T18:33:58.208Z,98107.42
2023-03-27T18:35:33.744Z,98108.80
2023-03-27T18:37:11.135Z,98110.02
2023-03-27T18:38:56.160Z,98111.48
2023-03-27T18:40:21.015Z,98112.55
2023-03-27T18:42:02.285Z,98112.54
2023-03-27T18:43:45.611Z,98116.74
2023-03-27T18:45:19.141Z,98118.27
2023-03-27T18:46:43.618Z,98118.19
2023-03-27T18:48:06.069Z,98119.01
2023-03-27T18:49:39.517Z,98094.73
2023-03-27T18:53:24.257Z,98133.22
2023-03-27T18:55:07.621Z,98124.36
2023-03-27T18:56:41.054Z,98123.41
2023-03-27T18:58:26.616Z,98127.50
2023-03-27T19:00:09.620Z,98125.04
2023-03-27T19:01:34.958Z,98127.71
2023-03-27T19:03:00.253Z,98131.25
2023-03-27T19:04:34.105Z,98125.20
2023-03-27T19:06:07.425Z,98127.36
2023-03-27T19:07:48.431Z,98132.08
2023-03-27T19:09:40.799Z,98131.98
2023-03-27T19:11:18.352Z,98135.73
2023-03-27T19:13:09.006Z,98135.95
2023-03-27T19:15:00.443Z,98135.00
2023-03-27T19:17:13.439Z,98136.08
2023-03-27T19:19:01.932Z,98135.52
2023-03-27T19:20:42.380Z,98134.60
2023-03-27T19:22:23.383Z,98135.94
2023-03-27T19:23:54.723Z,98139.81
2023-03-27T19:25:19.710Z,98139.77
2023-03-27T19:26:41.628Z,98133.19
2023-03-27T19:28:04.112Z,98136.92
2023-03-27T19:29:25.955Z,98138.33
2023-03-27T19:30:48.406Z,98142.66
2023-03-27T19:32:10.296Z,98135.65
2023-03-27T19:33:34.688Z,98135.13
2023-03-27T19:34:59.639Z,98134.19